Time;durP1;ratioP1;P1;durP2;ratioP2;P2;SDS_P1;SDS_P2;PMS_P1;PMS_P2;Temp;Humidity;BMP_temperature;BMP_pressure;BME280_temperature;BME280_humidity;BME280_pressure;Samples;Min_cycle;Max_cycle;Signal;HPM_P1;HPM_P2
2022/04/14 00:01:34;;;;;;;52.30;28.50;;;;;;;6.97;55.48;101268.09;1592267;89;25912;-77
2022/04/14 00:04:00;;;;;;;51.70;27.10;;;;;;;6.96;55.57;101268.24;1591312;88;25536;-77
2022/04/14 00:06:27;;;;;;;56.25;28.65;;;;;;;6.92;55.60;101270.38;1591386;89;26583;-78
2022/04/14 00:08:53;;;;;;;52.58;27.37;;;;;;;6.91;55.67;101271.34;1592349;89;25905;-77
2022/04/14 00:11:20;;;;;;;50.30;27.65;;;;;;;6.89;55.81;101269.32;1592358;89;27481;-77
2022/04/14 00:13:47;;;;;;;50.20;27.82;;;;;;;6.84;55.71;101271.58;1592076;88;26679;-77
2022/04/14 00:16:13;;;;;;;50.52;28.40;;;;;;;6.83;55.86;101279.23;1591911;89;25806;-77
2022/04/14 00:18:39;;;;;;;52.35;27.60;;;;;;;6.81;55.86;101279.03;1591318;88;26720;-77
2022/04/14 00:21:05;;;;;;;49.95;28.07;;;;;;;6.75;55.95;101275.14;1591385;89;25797;-77
2022/04/14 00:23:31;;;;;;;45.60;26.85;;;;;;;6.71;56.21;101275.56;1591728;88;27559;-77
2022/04/14 00:25:58;;;;;;;49.73;28.90;;;;;;;6.64;56.41;101272.64;1592226;89;26267;-77
2022/04/14 00:28:24;;;;;;;53.00;28.67;;;;;;;6.59;56.64;101264.73;1591303;89;25963;-77
2022/04/14 00:30:50;;;;;;;49.77;28.80;;;;;;;6.54;56.73;101267.86;1591544;89;26522;-77
2022/04/14 00:33:17;;;;;;;55.45;28.07;;;;;;;6.49;56.85;101273.24;1587191;88;25869;-77
2022/04/14 00:35:44;;;;;;;53.63;28.23;;;;;;;6.43;56.79;101272.49;1591824;89;27518;-77
2022/04/14 00:38:10;;;;;;;52.20;28.95;;;;;;;6.39;57.07;101267.96;1591604;89;25822;-77
2022/04/14 00:40:37;;;;;;;56.85;29.18;;;;;;;6.34;57.10;101260.89;1591084;89;26569;-77
2022/04/14 00:43:03;;;;;;;54.42;28.70;;;;;;;6.32;57.06;101260.68;1591297;88;25882;-77
2022/04/14 00:45:29;;;;;;;55.20;29.75;;;;;;;6.29;57.25;101253.81;1591364;89;25820;-77
2022/04/14 00:47:55;;;;;;;58.35;28.27;;;;;;;6.27;57.20;101259.77;1592136;89;27450;-77
2022/04/14 00:50:22;;;;;;;54.23;29.75;;;;;;;6.27;57.31;101258.44;1591290;89;25946;-77
2022/04/14 00:52:48;;;;;;;50.85;26.68;;;;;;;6.25;57.40;101253.76;1590850;88;25860;-77
2022/04/14 00:55:15;;;;;;;52.58;26.55;;;;;;;6.24;57.47;101249.44;1579574;89;26515;-77
2022/04/14 00:57:43;;;;;;;53.65;27.05;;;;;;;6.23;57.55;101249.08;1591314;89;26654;-77
2022/04/14 01:00:10;;;;;;;42.88;26.68;;;;;;;6.22;57.59;101248.23;1591488;89;27470;-77
2022/04/14 01:02:37;;;;;;;50.28;26.60;;;;;;;6.23;57.74;101255.24;1591694;89;25841;-77
2022/04/14 01:05:04;;;;;;;50.78;27.35;;;;;;;6.20;57.70;101254.19;1592082;88;25644;-77
2022/04/14 01:07:36;;;;;;;51.70;28.70;;;;;;;6.17;57.87;101256.30;1591480;89;26399;-76
2022/04/14 01:10:04;;;;;;;48.70;27.40;;;;;;;6.12;58.00;101254.55;1592488;89;25767;-77
2022/04/14 01:12:32;;;;;;;48.52;27.73;;;;;;;6.06;58.05;101251.98;1591433;89;28330;-77
2022/04/14 01:14:58;;;;;;;49.20;27.00;;;;;;;6.03;58.02;101260.73;1591139;88;25849;-78
2022/04/14 01:17:24;;;;;;;46.92;26.55;;;;;;;5.95;58.26;101257.44;1591196;89;26053;-78
2022/04/14 01:19:51;;;;;;;47.95;27.45;;;;;;;5.89;58.43;101265.14;1590878;89;25915;-77
2022/04/14 01:22:35;;;;;;;54.53;30.80;;;;;;;5.83;58.40;101261.20;1580672;89;26735;-77
2022/04/14 01:25:02;;;;;;;51.58;29.25;;;;;;;5.78;58.69;101263.43;1591340;88;27499;-78
2022/04/14 01:27:29;;;;;;;55.80;27.80;;;;;;;5.70;58.89;101263.78;1582673;89;25929;-77
2022/04/14 01:29:55;;;;;;;45.83;27.62;;;;;;;5.65;58.94;101262.86;1591665;89;25931;-77
2022/04/14 01:32:23;;;;;;;47.30;26.65;;;;;;;5.61;59.09;101257.95;1590793;89;26596;-77
2022/04/14 01:34:51;;;;;;;46.85;26.68;;;;;;;5.58;59.07;101254.27;1591584;88;25880;-77
2022/04/14 01:37:17;;;;;;;51.28;28.32;;;;;;;5.57;59.19;101254.75;1592043;89;27498;-77
2022/04/14 01:39:44;;;;;;;45.73;26.05;;;;;;;5.54;59.24;101249.70;1592206;89;26549;-78
2022/04/14 01:42:10;;;;;;;47.05;27.25;;;;;;;5.54;59.34;101251.03;1591500;89;26441;-77
2022/04/14 01:44:36;;;;;;;49.03;25.82;;;;;;;5.52;59.40;101258.30;1591415;88;25838;-77
2022/04/14 01:47:03;;;;;;;47.80;27.45;;;;;;;5.50;59.40;101256.27;1591195;89;25818;-77
2022/04/14 01:49:29;;;;;;;47.62;27.75;;;;;;;5.48;59.45;101252.91;1591423;89;27535;-77
2022/04/14 01:51:56;;;;;;;46.02;26.48;;;;;;;5.47;59.45;101248.08;1591869;89;25841;-77
2022/04/14 01:54:22;;;;;;;54.38;28.85;;;;;;;5.44;59.37;101248.38;1594345;88;25745;-77
2022/04/14 01:56:49;;;;;;;46.37;27.00;;;;;;;5.46;59.38;101252.22;1599773;88;26367;-77
2022/04/14 01:59:15;;;;;;;45.50;27.70;;;;;;;5.47;59.25;101246.75;1578247;90;25824;-77
2022/04/14 02:01:41;;;;;;;40.55;24.92;;;;;;;5.46;59.44;101245.09;1578699;90;27479;-77
2022/04/14 02:04:08;;;;;;;50.80;26.07;;;;;;;5.45;59.39;101253.21;1591265;88;26549;-78
2022/04/14 02:06:35;;;;;;;43.05;26.30;;;;;;;5.42;59.49;101254.80;1592237;89;25837;-77
2022/04/14 02:09:01;;;;;;;42.62;26.20;;;;;;;5.39;59.30;101250.59;1591959;89;25781;-77
2022/04/14 02:11:27;;;;;;;45.67;25.32;;;;;;;5.38;59.46;101249.41;1606308;88;26471;-77
2022/04/14 02:13:54;;;;;;;48.30;25.95;;;;;;;5.34;59.58;101247.53;1599141;88;28328;-77
2022/04/14 02:16:20;;;;;;;43.87;25.85;;;;;;;5.33;59.68;101250.30;1599257;88;25817;-77
2022/04/14 02:18:46;;;;;;;45.52;25.90;;;;;;;5.27;59.92;101247.72;1600875;88;25910;-77
2022/04/14 02:21:12;;;;;;;42.90;25.57;;;;;;;5.22;60.12;101242.45;1591839;88;26994;-77
2022/04/14 02:23:39;;;;;;;42.00;25.52;;;;;;;5.16;60.34;101242.52;1593000;88;25766;-77
2022/04/14 02:26:05;;;;;;;41.50;25.10;;;;;;;5.11;60.59;101238.09;1593073;89;27483;-77
2022/04/14 02:28:31;;;;;;;40.65;25.32;;;;;;;5.06;60.57;101241.67;1592723;88;25982;-77
2022/04/14 02:30:57;;;;;;;44.25;25.35;;;;;;;5.02;60.98;101232.78;1592434;88;25843;-77
2022/04/14 02:33:23;;;;;;;40.73;24.75;;;;;;;4.99;61.03;101231.23;1589960;88;26688;-77
2022/04/14 02:35:49;;;;;;;39.03;23.80;;;;;;;4.97;61.24;101230.52;1592387;88;25859;-77
2022/04/14 02:38:16;;;;;;;42.90;25.40;;;;;;;4.95;61.29;101232.48;1593460;88;27630;-77
2022/04/14 02:40:42;;;;;;;49.77;26.55;;;;;;;4.92;61.43;101232.73;1593056;88;25776;-77
2022/04/14 02:43:08;;;;;;;46.05;26.02;;;;;;;4.91;61.31;101233.73;1592314;87;26509;-77
2022/04/14 02:45:34;;;;;;;42.62;25.08;;;;;;;4.93;61.28;101232.25;1593960;88;26589;-77
2022/04/14 02:48:00;;;;;;;52.78;25.25;;;;;;;4.93;61.31;101231.77;1593396;89;25986;-77
2022/04/14 02:50:27;;;;;;;40.88;23.92;;;;;;;4.93;61.37;101230.92;1591216;89;27633;-77
2022/04/14 02:52:54;;;;;;;44.55;24.30;;;;;;;4.94;61.41;101234.77;1591484;88;25891;-77
2022/04/14 02:55:21;;;;;;;40.00;24.40;;;;;;;4.93;61.32;101238.41;1591944;89;25778;-77
2022/04/14 02:57:49;;;;;;;45.70;24.27;;;;;;;4.92;61.22;101237.23;1592084;89;26593;-77
2022/04/14 03:00:16;;;;;;;40.73;23.85;;;;;;;4.92;61.36;101237.23;1582804;88;26001;-77
2022/04/14 03:02:42;;;;;;;45.67;25.02;;;;;;;4.90;61.36;101230.70;1595291;88;27561;-78
2022/04/14 03:05:11;;;;;;;45.03;25.77;;;;;;;4.89;61.39;101234.83;1593131;88;25789;-77
2022/04/14 03:07:37;;;;;;;44.70;24.40;;;;;;;4.90;61.43;101233.87;1591706;89;25984;-77
2022/04/14 03:10:05;;;;;;;47.20;25.88;;;;;;;4.91;61.38;101231.07;1591586;89;25917;-77
2022/04/14 03:12:46;;;;;;;45.03;26.40;;;;;;;4.90;61.41;101227.23;1591867;89;25925;-77
2022/04/14 03:15:13;;;;;;;45.28;26.02;;;;;;;4.88;61.32;101222.04;1591141;89;27523;-77
2022/04/14 03:17:40;;;;;;;39.90;24.43;;;;;;;4.86;61.41;101222.66;1592374;89;26496;-78
2022/04/14 03:20:08;;;;;;;41.83;24.50;;;;;;;4.86;61.60;101216.03;1594624;89;25881;-77
2022/04/14 03:22:35;;;;;;;44.83;25.25;;;;;;;4.90;61.56;101217.94;1591519;89;26553;-77
2022/04/14 03:25:05;;;;;;;40.85;23.92;;;;;;;4.91;61.70;101211.64;1592095;88;25837;-77
2022/04/14 03:27:31;;;;;;;44.33;23.85;;;;;;;4.93;61.70;101217.66;1591018;89;27660;-77
2022/04/14 03:29:58;;;;;;;41.53;25.10;;;;;;;4.91;61.68;101214.30;1583954;90;26509;-77
2022/04/14 03:32:25;;;;;;;44.03;25.30;;;;;;;4.91;61.66;101218.28;1583275;90;26649;-77
2022/04/14 03:34:53;;;;;;;41.45;23.85;;;;;;;4.89;61.79;101217.58;1579591;89;26556;-77
2022/04/14 03:37:20;;;;;;;43.48;25.00;;;;;;;4.86;61.70;101223.14;1597185;88;25883;-77
2022/04/14 03:39:47;;;;;;;41.60;24.43;;;;;;;4.84;61.76;101215.80;1591309;89;27487;-77
2022/04/14 03:42:14;;;;;;;44.75;23.52;;;;;;;4.80;61.83;101214.39;1592284;88;25912;-77
2022/04/14 03:44:40;;;;;;;42.33;22.52;;;;;;;4.77;61.91;101214.69;1592131;88;25477;-77
2022/04/14 03:47:07;;;;;;;42.62;23.30;;;;;;;4.74;61.90;101209.16;1592545;89;26535;-77
2022/04/14 03:49:35;;;;;;;39.30;23.52;;;;;;;4.71;61.91;101206.75;1592298;89;26675;-77
2022/04/14 03:52:02;;;;;;;46.42;25.05;;;;;;;4.69;62.03;101204.72;1592323;89;27484;-78
2022/04/14 03:54:28;;;;;;;41.42;25.48;;;;;;;4.66;62.08;101207.16;1592027;88;25892;-77
2022/04/14 03:56:55;;;;;;;38.42;22.62;;;;;;;4.67;62.01;101202.70;1590612;88;25850;-77
2022/04/14 03:59:21;;;;;;;43.30;23.45;;;;;;;4.67;62.18;101204.87;1591472;89;26497;-77
2022/04/14 04:01:47;;;;;;;44.85;26.17;;;;;;;4.66;62.31;101199.19;1591392;89;26598;-77
2022/04/14 04:04:13;;;;;;;42.05;23.27;;;;;;;4.66;62.43;101195.72;1592287;88;28311;-78
2022/04/14 04:06:40;;;;;;;42.23;23.47;;;;;;;4.67;62.52;101193.41;1591889;88;25788;-78
2022/04/14 04:09:06;;;;;;;44.75;25.00;;;;;;;4.70;62.57;101188.66;1591882;88;25563;-77
2022/04/14 04:11:32;;;;;;;43.83;24.75;;;;;;;4.76;62.70;101191.76;1591711;88;25907;-77
2022/04/14 04:13:58;;;;;;;41.92;24.52;;;;;;;4.79;62.88;101190.99;1591789;88;26682;-79
2022/04/14 04:16:24;;;;;;;39.20;23.22;;;;;;;4.83;62.80;101184.47;1592490;89;27483;-78
2022/04/14 04:18:51;;;;;;;41.85;24.55;;;;;;;4.87;62.86;101182.37;1592276;88;26544;-77
2022/04/14 04:21:17;;;;;;;41.65;24.10;;;;;;;4.91;62.85;101183.77;1592465;89;26528;-77
2022/04/14 04:23:43;;;;;;;43.10;24.47;;;;;;;4.93;62.88;101184.47;1591723;88;26476;-77
2022/04/14 04:26:09;;;;;;;44.40;23.55;;;;;;;4.93;62.86;101185.80;1588927;89;25907;-77
2022/04/14 04:28:36;;;;;;;43.10;24.50;;;;;;;4.95;62.91;101193.98;1591965;89;27474;-77
2022/04/14 04:31:02;;;;;;;46.45;24.45;;;;;;;4.98;63.01;101183.59;1592371;89;26313;-77
2022/04/14 04:33:28;;;;;;;42.53;25.10;;;;;;;5.01;63.15;101177.50;1591976;88;26487;-77
2022/04/14 04:35:55;;;;;;;42.67;24.80;;;;;;;5.04;63.27;101179.05;1589782;89;26557;-77
2022/04/14 04:38:21;;;;;;;43.13;24.25;;;;;;;5.08;63.27;101177.31;1591897;89;26233;-77
2022/04/14 04:40:47;;;;;;;46.15;24.77;;;;;;;5.12;63.28;101177.39;1591908;89;28367;-77
2022/04/14 04:43:15;;;;;;;45.52;24.52;;;;;;;5.17;63.33;101184.47;1588953;88;25877;-77
2022/04/14 04:45:42;;;;;;;40.05;25.88;;;;;;;5.22;63.54;101178.71;1592138;89;25842;-77
2022/04/14 04:48:09;;;;;;;49.03;24.77;;;;;;;5.27;63.63;101179.99;1592013;89;26624;-77
2022/04/14 04:50:35;;;;;;;46.50;25.08;;;;;;;5.31;63.57;101180.06;1592022;89;25788;-77
2022/04/14 04:53:01;;;;;;;47.73;26.12;;;;;;;5.37;63.58;101176.84;1591541;88;27506;-78
2022/04/14 04:55:27;;;;;;;44.50;26.07;;;;;;;5.42;63.69;101170.63;1591889;89;26130;-77
2022/04/14 04:57:54;;;;;;;46.30;25.65;;;;;;;5.46;63.81;101170.70;1592116;89;26488;-77
2022/04/14 05:00:20;;;;;;;39.38;23.55;;;;;;;5.49;63.68;101169.07;1591494;89;26520;-77
2022/04/14 05:02:46;;;;;;;44.08;24.47;;;;;;;5.54;63.77;101166.00;1591751;88;25873;-77
2022/04/14 05:05:12;;;;;;;45.43;24.80;;;;;;;5.57;63.75;101164.88;1591656;89;28315;-77
2022/04/14 05:07:39;;;;;;;48.20;25.55;;;;;;;5.60;63.70;101168.13;1591514;89;25938;-77
2022/04/14 05:10:06;;;;;;;45.67;25.10;;;;;;;5.61;63.83;101163.14;1590922;89;25841;-77
2022/04/14 05:12:32;;;;;;;48.83;25.97;;;;;;;5.65;63.82;101159.70;1591082;88;25841;-77
2022/04/14 05:14:58;;;;;;;46.48;26.65;;;;;;;5.68;63.95;101158.09;1597337;87;25991;-77
2022/04/14 05:17:25;;;;;;;44.73;24.15;;;;;;;5.72;63.99;101159.00;1590982;89;27561;-78
2022/04/14 05:19:51;;;;;;;38.02;22.55;;;;;;;5.78;64.04;101163.75;1591990;88;26011;-77
2022/04/14 05:22:17;;;;;;;44.58;23.80;;;;;;;5.84;64.06;101159.22;1591053;89;25909;-77
2022/04/14 05:24:43;;;;;;;42.30;23.83;;;;;;;5.92;63.98;101159.84;1590759;89;26388;-78
2022/04/14 05:27:09;;;;;;;42.40;23.12;;;;;;;5.99;63.89;101160.93;1592169;89;25966;-77
2022/04/14 05:29:37;;;;;;;54.38;24.57;;;;;;;6.04;63.84;101155.55;1592500;89;27462;-77
2022/04/14 05:32:06;;;;;;;42.45;23.87;;;;;;;6.13;63.89;101163.15;1592029;89;25839;-77
2022/04/14 05:34:33;;;;;;;35.98;22.15;;;;;;;6.21;63.98;101159.27;1590829;88;26597;-77
2022/04/14 05:36:59;;;;;;;42.65;22.37;;;;;;;6.27;63.79;101156.02;1591566;89;26657;-78
2022/04/14 05:39:25;;;;;;;38.53;22.67;;;;;;;6.35;63.90;101152.13;1591042;89;25976;-77
2022/04/14 05:41:51;;;;;;;42.53;22.50;;;;;;;6.44;63.87;101151.74;1590802;89;27557;-77
2022/04/14 05:44:19;;;;;;;40.45;21.37;;;;;;;6.52;63.91;101154.53;1590870;88;25945;-77
2022/04/14 05:46:45;;;;;;;37.05;21.33;;;;;;;6.61;63.84;101150.48;1591486;89;25787;-77
2022/04/14 05:49:12;;;;;;;39.42;22.07;;;;;;;6.72;63.76;101149.44;1591565;89;26552;-77
2022/04/14 05:51:38;;;;;;;36.80;21.27;;;;;;;6.82;64.17;101145.73;1591795;89;25791;-77
2022/04/14 05:54:04;;;;;;;35.15;19.98;;;;;;;6.92;63.91;101142.54;1591161;88;27477;-77
2022/04/14 05:56:30;;;;;;;38.35;21.62;;;;;;;7.03;63.78;101136.64;1591189;89;26509;-77
2022/04/14 05:58:56;;;;;;;39.20;22.07;;;;;;;7.15;63.91;101138.09;1599455;88;25985;-77
2022/04/14 06:01:25;;;;;;;38.73;20.45;;;;;;;7.25;63.89;101139.69;1592291;88;26515;-77
2022/04/14 06:03:51;;;;;;;33.60;20.50;;;;;;;7.35;63.67;101139.63;1591940;88;25945;-77
2022/04/14 06:06:17;;;;;;;35.40;20.25;;;;;;;7.46;63.87;101133.55;1590963;89;27500;-77
2022/04/14 06:08:43;;;;;;;35.98;19.52;;;;;;;7.58;63.48;101135.49;1590857;89;25976;-78
2022/04/14 06:11:10;;;;;;;37.13;19.77;;;;;;;7.69;63.27;101128.59;1591557;89;25420;-78
2022/04/14 06:13:36;;;;;;;35.50;19.82;;;;;;;7.79;63.01;101128.83;1591564;88;26161;-77
2022/04/14 06:16:04;;;;;;;35.38;19.85;;;;;;;7.90;63.22;101129.06;1591225;89;25879;-77
2022/04/14 06:18:30;;;;;;;30.90;19.07;;;;;;;8.01;63.28;101130.15;1591838;89;27546;-77
2022/04/14 06:20:56;;;;;;;38.95;19.07;;;;;;;8.14;63.27;101132.39;1592061;89;25774;-77
2022/04/14 06:23:22;;;;;;;31.80;17.62;;;;;;;8.26;63.20;101133.32;1591317;88;26005;-77
2022/04/14 06:25:51;;;;;;;31.48;18.75;;;;;;;8.38;62.98;101120.55;1591430;89;25854;-77
2022/04/14 06:28:19;;;;;;;27.30;17.98;;;;;;;8.51;62.75;101122.28;1596792;88;25849;-77
2022/04/14 06:30:49;;;;;;;30.82;17.17;;;;;;;8.66;62.44;101121.16;1591278;89;27489;-78
2022/04/14 06:33:16;;;;;;;29.90;16.50;;;;;;;8.78;62.03;101125.19;1591745;88;26500;-77
2022/04/14 06:35:43;;;;;;;31.70;18.05;;;;;;;8.90;61.36;101122.55;1596488;88;25800;-77
2022/04/14 06:38:09;;;;;;;29.75;17.23;;;;;;;9.01;61.41;101120.91;1591161;89;25962;-77
2022/04/14 06:40:36;;;;;;;34.55;17.10;;;;;;;9.11;60.92;101120.28;1590905;89;26016;-77
2022/04/14 06:43:03;;;;;;;33.63;17.65;;;;;;;9.24;60.75;101121.94;1591679;88;28269;-77
2022/04/14 06:45:30;;;;;;;29.07;16.87;;;;;;;9.37;60.80;101112.94;1591734;89;26603;-77
2022/04/14 06:47:57;;;;;;;29.30;16.40;;;;;;;9.52;60.61;101115.28;1592353;89;26747;-77
2022/04/14 06:50:23;;;;;;;27.85;16.07;;;;;;;9.68;60.78;101110.44;1590675;89;26594;-77
2022/04/14 06:52:51;;;;;;;26.35;15.28;;;;;;;9.85;60.79;101110.75;1591451;88;25923;-77
2022/04/14 06:55:18;;;;;;;30.05;15.40;;;;;;;10.01;60.10;101116.90;1592315;89;27560;-77
2022/04/14 06:57:45;;;;;;;24.70;13.18;;;;;;;10.14;59.84;101115.06;1591737;89;25919;-78
2022/04/14 07:00:13;;;;;;;24.05;13.45;;;;;;;10.27;59.32;101115.86;1591301;89;26034;-77
2022/04/14 07:02:52;;;;;;;23.73;12.85;;;;;;;10.40;58.79;101112.13;1591020;89;25836;-77
2022/04/14 07:05:20;;;;;;;20.62;11.68;;;;;;;10.55;58.32;101113.08;1591959;89;25901;-78
2022/04/14 07:07:46;;;;;;;19.25;10.98;;;;;;;10.68;57.24;101112.02;1591187;89;27517;-77
2022/04/14 07:10:13;;;;;;;18.23;11.05;;;;;;;10.80;57.46;101103.41;1590644;89;26598;-78
2022/04/14 07:12:41;;;;;;;19.95;10.03;;;;;;;10.96;57.00;101109.19;1590679;89;25815;-77
2022/04/14 07:15:09;;;;;;;18.15;9.35;;;;;;;11.11;56.80;101110.60;1591434;89;26590;-77
2022/04/14 07:17:37;;;;;;;22.07;10.40;;;;;;;11.28;56.84;101109.48;1591867;89;26561;-77
2022/04/14 07:20:07;;;;;;;15.13;9.55;;;;;;;11.41;56.29;101101.17;1591680;89;28292;-77
2022/04/14 07:22:51;;;;;;;18.95;10.03;;;;;;;11.55;55.53;101101.70;1592139;89;25851;-78
2022/04/14 07:25:17;;;;;;;13.62;9.13;;;;;;;11.68;55.25;101102.96;1591905;89;25849;-78
2022/04/14 07:27:46;;;;;;;15.23;8.93;;;;;;;11.77;54.70;101099.20;1603886;88;25749;-77
2022/04/14 07:30:12;;;;;;;19.10;8.68;;;;;;;11.92;54.64;101106.27;1592792;88;25826;-77
2022/04/14 07:32:45;;;;;;;20.60;9.35;;;;;;;12.04;53.74;101105.33;1591546;89;27465;-78
2022/04/14 07:35:13;;;;;;;13.28;8.05;;;;;;;12.18;53.85;101109.86;1594217;88;25897;-77
2022/04/14 07:37:39;;;;;;;15.50;9.00;;;;;;;12.28;53.28;101114.44;1601880;88;25747;-78
2022/04/14 07:40:08;;;;;;;16.48;8.38;;;;;;;12.39;53.15;101108.10;1591794;89;25831;-78
2022/04/14 07:42:37;;;;;;;19.98;8.33;;;;;;;12.51;51.98;101108.45;1590994;88;26064;-78
2022/04/14 07:45:06;;;;;;;12.73;8.10;;;;;;;12.65;51.67;101107.61;1592704;88;28208;-78
2022/04/14 07:47:33;;;;;;;16.77;7.15;;;;;;;12.78;51.33;101106.44;1600534;88;26440;-78
2022/04/14 07:49:59;;;;;;;13.40;7.97;;;;;;;12.90;50.92;101099.53;1603586;88;25810;-78
2022/04/14 07:52:26;;;;;;;15.90;8.60;;;;;;;13.00;50.93;101092.52;1597693;88;26572;-78
2022/04/14 07:54:52;;;;;;;12.07;7.30;;;;;;;13.15;50.32;101097.38;1592229;88;25999;-78
2022/04/14 07:57:18;;;;;;;20.57;8.38;;;;;;;13.30;49.83;101095.96;1596268;88;27632;-77
2022/04/14 07:59:44;;;;;;;10.75;6.28;;;;;;;13.40;49.56;101089.73;1596118;88;26056;-77
2022/04/14 08:02:11;;;;;;;15.10;7.08;;;;;;;13.52;48.90;101089.52;1591842;89;25812;-77
2022/04/14 08:04:38;;;;;;;17.17;7.87;;;;;;;13.62;48.30;101091.39;1591536;88;26093;-77
2022/04/14 08:07:05;;;;;;;12.25;7.10;;;;;;;13.73;47.16;101089.48;1592200;89;26095;-78
2022/04/14 08:09:31;;;;;;;15.85;6.95;;;;;;;13.82;47.61;101091.86;1591790;89;27499;-77
2022/04/14 08:11:57;;;;;;;10.48;5.87;;;;;;;13.96;46.95;101087.91;1595317;88;25954;-77
2022/04/14 08:14:24;;;;;;;12.33;6.60;;;;;;;14.06;46.82;101085.70;1591342;88;25888;-77
2022/04/14 08:16:50;;;;;;;13.98;6.12;;;;;;;14.16;47.25;101086.16;1592582;88;26557;-79
2022/04/14 08:19:16;;;;;;;11.00;6.47;;;;;;;14.27;46.61;101077.02;1592944;88;26598;-78
2022/04/14 08:21:42;;;;;;;11.20;6.67;;;;;;;14.35;45.72;101078.23;1595885;88;27543;-78
2022/04/14 08:24:08;;;;;;;10.82;6.55;;;;;;;14.43;45.75;101074.55;1591096;88;25990;-78
2022/04/14 08:26:37;;;;;;;12.00;6.80;;;;;;;14.54;45.36;101065.90;1601055;88;25932;-78
2022/04/14 08:29:03;;;;;;;15.23;5.85;;;;;;;14.65;45.39;101065.30;1598802;88;26581;-78
2022/04/14 08:31:29;;;;;;;10.30;5.97;;;;;;;14.76;45.07;101063.87;1596928;88;25961;-78
2022/04/14 08:33:56;;;;;;;9.65;5.50;;;;;;;14.85;43.52;101066.20;1590479;88;27483;-79
2022/04/14 08:36:22;;;;;;;11.55;6.12;;;;;;;14.99;44.18;101064.39;1590453;89;26645;-78
2022/04/14 08:38:50;;;;;;;9.65;5.55;;;;;;;15.11;43.05;101066.79;1571652;89;26499;-79
2022/04/14 08:41:24;;;;;;;9.35;5.58;;;;;;;15.20;43.39;101068.27;1581571;89;26591;-78
2022/04/14 08:44:02;;;;;;;9.93;6.08;;;;;;;15.26;43.09;101063.39;1584467;88;25853;-78
2022/04/14 08:46:29;;;;;;;11.20;6.15;;;;;;;15.38;43.37;101062.56;1585310;90;27447;-78
2022/04/14 08:48:57;;;;;;;9.75;5.67;;;;;;;15.49;43.21;101057.61;1595216;88;25856;-78
2022/04/14 08:51:30;;;;;;;9.63;5.70;;;;;;;15.60;42.77;101051.59;1597259;88;25880;-79
2022/04/14 08:53:56;;;;;;;12.55;6.00;;;;;;;15.70;42.72;101058.74;1591610;88;25790;-78
2022/04/14 08:56:24;;;;;;;12.85;6.15;;;;;;;15.78;42.76;101051.25;1592134;89;25828;-79
2022/04/14 08:58:55;;;;;;;9.78;5.90;;;;;;;15.91;42.37;101053.14;1592379;89;28554;-78
2022/04/14 09:01:26;;;;;;;9.60;6.30;;;;;;;16.03;41.04;101050.09;1584378;90;26448;-78
2022/04/14 09:03:57;;;;;;;10.25;6.03;;;;;;;16.13;41.47;101045.91;1591551;88;25810;-78
2022/04/14 09:06:27;;;;;;;11.35;5.72;;;;;;;16.23;41.09;101054.10;1585123;90;25856;-78
2022/04/14 09:08:56;;;;;;;15.33;6.40;;;;;;;16.29;41.38;101039.21;1597475;88;26017;-79
2022/04/14 09:11:23;;;;;;;8.88;5.65;;;;;;;16.39;40.27;101034.69;1585439;89;27545;-78
2022/04/14 09:13:49;;;;;;;10.00;5.67;;;;;;;16.49;40.77;101041.81;1584099;88;25765;-79
2022/04/14 09:16:16;;;;;;;8.70;6.40;;;;;;;16.56;40.69;101035.90;1592550;89;25867;-78
2022/04/14 09:18:42;;;;;;;9.35;5.75;;;;;;;16.62;39.84;101033.68;1591774;89;26605;-79
2022/04/14 09:21:08;;;;;;;8.88;6.12;;;;;;;16.68;39.90;101028.23;1585700;90;26467;-79
2022/04/14 09:23:36;;;;;;;8.65;5.70;;;;;;;16.75;39.91;101026.34;1591835;88;27467;-78
2022/04/14 09:26:11;;;;;;;10.10;5.67;;;;;;;16.83;40.04;101026.08;1585004;90;26587;-79
2022/04/14 09:28:35;;;;;;;9.68;5.25;;;;;;;16.91;39.76;101019.05;1591488;89;26490;-79
2022/04/14 09:31:06;;;;;;;10.88;5.03;;;;;;;17.00;39.86;101014.20;1584191;89;26589;-78
2022/04/14 09:33:39;;;;;;;7.65;4.90;;;;;;;17.09;39.68;101008.00;1591538;88;25892;-78
2022/04/14 09:36:13;;;;;;;7.75;4.90;;;;;;;17.20;39.46;101005.43;1591412;89;27534;-78
2022/04/14 09:39:05;;;;;;;9.30;4.90;;;;;;;17.28;38.90;101003.80;1591897;89;26507;-79
2022/04/14 09:41:40;;;;;;;7.85;5.03;;;;;;;17.35;39.04;101001.04;1591996;89;25877;-79
2022/04/14 09:44:09;;;;;;;10.38;5.95;;;;;;;17.40;37.29;100995.28;1591688;88;26072;-78
2022/04/14 09:46:38;;;;;;;7.50;4.62;;;;;;;17.50;35.66;100984.80;1601274;88;25885;-78
2022/04/14 09:49:11;;;;;;;9.10;5.97;;;;;;;17.57;37.76;100986.09;1562300;91;27494;-78
2022/04/14 09:51:41;;;;;;;7.22;5.30;;;;;;;17.63;37.67;100988.73;1591900;89;25812;-78
2022/04/14 09:54:19;;;;;;;8.93;5.70;;;;;;;17.70;37.66;100985.97;1591234;88;25827;-78
2022/04/14 09:56:54;;;;;;;10.00;5.17;;;;;;;17.76;36.99;100982.87;1591552;89;26579;-78
2022/04/14 09:59:24;;;;;;;9.73;6.70;;;;;;;17.81;37.03;100975.75;1591476;89;25875;-78
2022/04/14 10:02:20;;;;;;;9.63;5.75;;;;;;;17.86;36.16;100972.33;1591919;89;27610;-78
2022/04/14 10:04:47;;;;;;;9.20;5.75;;;;;;;17.91;36.90;100974.69;1590624;88;53201;-77
2022/04/14 10:07:20;;;;;;;9.73;5.35;;;;;;;18.00;36.55;100972.51;1591490;89;26653;-79
2022/04/14 10:09:50;;;;;;;12.78;5.75;;;;;;;18.07;37.14;100971.91;1591986;89;26554;-78
2022/04/14 10:12:27;;;;;;;9.67;5.30;;;;;;;18.13;36.68;100970.48;1581286;89;26636;-78
2022/04/14 10:15:07;;;;;;;8.05;5.65;;;;;;;18.21;36.47;100963.91;1591660;88;27513;-78
2022/04/14 10:17:39;;;;;;;9.95;5.42;;;;;;;18.29;36.01;100957.64;1592656;89;26014;-77
2022/04/14 10:20:10;;;;;;;9.90;6.03;;;;;;;18.36;35.69;100961.11;1591127;89;26408;-78
2022/04/14 10:22:38;;;;;;;8.88;5.42;;;;;;;18.42;35.92;100958.00;1591540;89;25962;-78
2022/04/14 10:25:05;;;;;;;8.33;5.47;;;;;;;18.48;35.71;100962.01;1589710;89;25973;-78
2022/04/14 10:27:33;;;;;;;9.40;5.85;;;;;;;18.55;35.21;100961.09;1571359;89;28347;-78
2022/04/14 10:29:59;;;;;;;10.95;4.78;;;;;;;18.59;34.27;100954.97;1592341;89;25922;-78
2022/04/14 10:32:26;;;;;;;8.53;4.87;;;;;;;18.62;35.21;100949.10;1592865;88;25913;-78
2022/04/14 10:34:52;;;;;;;9.78;6.10;;;;;;;18.69;35.13;100945.73;1592147;88;25844;-78
2022/04/14 10:37:36;;;;;;;9.18;5.58;;;;;;;18.79;35.22;100947.91;1591997;89;25934;-79
2022/04/14 10:40:03;;;;;;;10.25;6.25;;;;;;;18.87;34.43;100943.49;1591402;89;27526;-79
2022/04/14 10:42:30;;;;;;;14.10;8.15;;;;;;;18.94;34.08;100940.16;1591788;89;25987;-78
2022/04/14 10:44:57;;;;;;;12.03;6.58;;;;;;;18.98;34.40;100937.27;1591527;88;25841;-79
2022/04/14 10:47:47;;;;;;;7.17;5.58;;;;;;;19.01;34.50;100935.45;1594012;88;26281;-78
2022/04/14 10:50:27;;;;;;;11.30;5.90;;;;;;;19.05;34.02;100928.50;1590228;89;25886;-78
2022/04/14 10:53:13;;;;;;;11.10;6.97;;;;;;;19.11;34.46;100924.84;1592347;88;27469;-78
2022/04/14 10:55:44;;;;;;;12.28;7.58;;;;;;;19.17;34.87;100930.16;1584763;90;25931;-78
2022/04/14 10:58:40;;;;;;;15.10;7.72;;;;;;;19.22;34.49;100922.67;1593937;88;25866;-78
2022/04/14 11:01:14;;;;;;;13.50;7.58;;;;;;;19.25;34.08;100922.17;1579952;89;25966;-78
2022/04/14 11:03:49;;;;;;;16.67;11.70;;;;;;;19.29;34.43;100919.84;1579916;88;25968;-79
2022/04/14 11:06:47;;;;;;;13.60;7.55;;;;;;;19.34;34.14;100912.66;1581032;89;26701;-78
2022/04/14 11:09:45;;;;;;;12.23;7.60;;;;;;;19.42;34.52;100907.41;1591114;89;26682;-79
2022/04/14 11:12:22;;;;;;;13.32;7.10;;;;;;;19.55;33.90;100901.18;1590741;89;25427;-78
2022/04/14 11:14:53;;;;;;;12.88;7.40;;;;;;;19.65;34.42;100903.31;1591901;88;26598;-78
2022/04/14 11:17:48;;;;;;;11.38;7.42;;;;;;;19.72;33.98;100902.63;1591680;89;33334;-78
2022/04/14 11:20:34;;;;;;;11.38;8.08;;;;;;;19.73;34.03;100900.22;1579635;89;28664;-78
2022/04/14 11:23:26;;;;;;;12.03;7.83;;;;;;;19.81;34.27;100903.39;1570480;89;26010;-78